Time;durP1;ratioP1;P1;durP2;ratioP2;P2;SDS_P1;SDS_P2;PMS_P1;PMS_P2;Temp;Humidity;BMP_temperature;BMP_pressure;BME280_temperature;BME280_humidity;BME280_pressure;Samples;Min_cycle;Max_cycle;Signal;HPM_P1;HPM_P2
2022/04/17 00:00:15;;;;;;;28.25;12.18;;;3.70;99.90;;;;;;5050630;28;20400;-53
2022/04/17 00:02:41;;;;;;;;;;;3.70;99.90;;;;;;5050147;28;20025;-52
2022/04/17 00:05:07;;;;;;;27.95;12.60;;;3.60;99.90;;;;;;5049374;28;20287;-53
2022/04/17 00:07:33;;;;;;;31.43;13.07;;;3.40;99.90;;;;;;5049806;28;20033;-53
2022/04/17 00:10:00;;;;;;;37.70;16.55;;;3.40;99.90;;;;;;5049677;28;20267;-53
2022/04/17 00:12:26;;;;;;;34.83;14.70;;;3.40;99.90;;;;;;5049407;28;20044;-53
2022/04/17 00:14:53;;;;;;;30.75;14.02;;;3.30;99.90;;;;;;5049302;28;20566;-52
2022/04/17 00:17:19;;;;;;;33.55;15.95;;;3.20;99.90;;;;;;5049322;28;20043;-52
2022/04/17 00:19:45;;;;;;;35.15;15.70;;;3.20;99.90;;;;;;5049236;28;20043;-53
2022/04/17 00:22:12;;;;;;;39.50;17.30;;;3.10;99.90;;;;;;5049233;28;20029;-52
2022/04/17 00:24:39;;;;;;;34.92;16.50;;;3.10;99.90;;;;;;5049406;28;20112;-53
2022/04/17 00:27:05;;;;;;;35.35;15.55;;;2.80;99.90;;;;;;5049473;28;20039;-51
2022/04/17 00:29:31;;;;;;;37.42;15.18;;;2.70;99.90;;;;;;5048645;28;20387;-53
2022/04/17 00:31:57;;;;;;;37.28;15.57;;;2.50;99.90;;;;;;5049314;28;20033;-53
2022/04/17 00:34:23;;;;;;;34.78;16.15;;;2.50;99.90;;;;;;5049087;28;20071;-51
2022/04/17 00:36:49;;;;;;;31.38;15.27;;;2.50;99.90;;;;;;5049299;28;20464;-53
2022/04/17 00:39:15;;;;;;;37.05;15.65;;;2.40;99.90;;;;;;5049133;28;20060;-51
2022/04/17 00:41:41;;;;;;;34.58;15.80;;;2.50;99.90;;;;;;5049011;28;20021;-53
2022/04/17 00:44:11;;;;;;;37.80;16.27;;;2.40;99.90;;;;;;5048918;28;20380;-52
2022/04/17 00:46:40;;;;;;;38.13;17.13;;;2.40;99.90;;;;;;5045968;28;20400;-53
2022/04/17 00:49:09;;;;;;;40.10;16.95;;;2.60;99.90;;;;;;5048520;28;20142;-50
2022/04/17 00:51:36;;;;;;;38.55;16.13;;;2.50;99.90;;;;;;5048781;28;20104;-52
2022/04/17 00:54:07;;;;;;;42.47;17.88;;;2.70;99.90;;;;;;5030742;28;20178;-53
2022/04/17 00:56:34;;;;;;;44.40;16.45;;;2.70;99.90;;;;;;5048698;28;20032;-52
2022/04/17 00:59:02;;;;;;;39.43;17.10;;;2.60;99.90;;;;;;5047944;28;20070;-52
2022/04/17 01:01:35;;;;;;;41.40;17.38;;;2.60;99.90;;;;;;5048805;28;20021;-53
2022/04/17 01:04:05;;;;;;;37.35;14.82;;;2.70;99.90;;;;;;5047946;28;20388;-52
2022/04/17 01:06:31;;;;;;;36.03;17.52;;;2.70;99.90;;;;;;5048757;28;20029;-52
2022/04/17 01:09:00;;;;;;;37.28;16.27;;;2.80;99.90;;;;;;5048096;28;20013;-52
2022/04/17 01:11:26;;;;;;;38.38;17.45;;;2.70;99.90;;;;;;5048822;28;20033;-52
2022/04/17 01:13:55;;;;;;;35.15;15.73;;;2.70;99.90;;;;;;5048633;28;20091;-52
2022/04/17 01:16:24;;;;;;;31.88;14.65;;;2.80;99.90;;;;;;5048309;28;20082;-51
2022/04/17 01:18:55;;;;;;;34.53;16.23;;;2.80;99.90;;;;;;5047976;28;20051;-51
2022/04/17 01:21:21;;;;;;;30.38;14.98;;;2.60;99.90;;;;;;5048553;28;20477;-53
2022/04/17 01:29:16;;;;;;;37.60;16.25;;;2.10;99.90;;;;;;5048307;28;20036;-52
2022/04/17 01:31:42;;;;;;;47.05;17.88;;;2.10;99.90;;;;;;5047998;28;20029;-53
2022/04/17 01:34:08;;;;;;;38.63;16.33;;;2.10;99.90;;;;;;5047976;28;20048;-52
2022/04/17 01:36:33;;;;;;;37.25;15.27;;;2.00;99.90;;;;;;5048600;28;20024;-52
2022/04/17 01:38:59;;;;;;;42.38;16.65;;;2.10;99.90;;;;;;5047834;28;20037;-53
2022/04/17 01:41:25;;;;;;;39.05;16.00;;;2.10;99.90;;;;;;5048238;28;20036;-53
2022/04/17 01:43:50;;;;;;;28.75;13.18;;;2.10;99.90;;;;;;5048003;28;20053;-53
2022/04/17 01:46:16;;;;;;;29.30;13.20;;;2.00;99.90;;;;;;5045214;28;20029;-53
2022/04/17 01:48:42;;;;;;;35.03;15.27;;;1.80;99.90;;;;;;5029893;28;20033;-53
2022/04/17 01:51:07;;;;;;;41.13;17.08;;;1.90;99.90;;;;;;5048125;28;20029;-52
2022/04/17 01:53:33;;;;;;;37.38;15.88;;;1.90;99.90;;;;;;5047901;28;20044;-53
2022/04/17 01:56:02;;;;;;;33.33;15.98;;;1.90;99.90;;;;;;5048273;28;20028;-53
2022/04/17 01:58:28;;;;;;;32.55;15.13;;;2.00;99.90;;;;;;5047952;28;20063;-53
2022/04/17 02:00:54;;;;;;;29.85;12.95;;;2.00;99.90;;;;;;5048106;28;20041;-53
2022/04/17 02:03:19;;;;;;;30.30;12.73;;;2.20;99.90;;;;;;5047474;28;20095;-53
2022/04/17 02:05:45;;;;;;;30.70;13.65;;;2.10;99.90;;;;;;5048292;28;20036;-52
2022/04/17 02:08:15;;;;;;;45.38;20.90;;;1.90;99.90;;;;;;5047833;28;20112;-53
2022/04/17 02:10:41;;;;;;;37.40;18.42;;;1.90;99.90;;;;;;5051034;28;20036;-54
2022/04/17 02:13:06;;;;;;;37.58;17.15;;;1.90;99.90;;;;;;5051324;28;20037;-53
2022/04/17 02:15:33;;;;;;;36.85;17.35;;;1.90;99.90;;;;;;5051559;28;20071;-52
2022/04/17 02:17:59;;;;;;;48.47;22.17;;;1.80;99.90;;;;;;5051423;28;20458;-52
2022/04/17 02:20:24;;;;;;;33.00;14.85;;;1.70;99.90;;;;;;5051698;28;20113;-51
2022/04/17 02:22:50;;;;;;;37.75;16.42;;;1.80;99.90;;;;;;5051563;28;20082;-51
2022/04/17 02:25:16;;;;;;;41.33;17.45;;;1.70;99.90;;;;;;5051478;28;20029;-51
2022/04/17 02:27:41;;;;;;;33.67;15.88;;;1.70;99.90;;;;;;5051652;28;20095;-53
2022/04/17 02:30:08;;;;;;;41.25;18.38;;;1.70;99.90;;;;;;5051639;28;20032;-53
2022/04/17 02:32:34;;;;;;;;;;;1.60;99.90;;;;;;5051527;28;20534;-52
2022/04/17 02:34:59;;;;;;;40.67;18.00;;;1.70;99.90;;;;;;5051301;28;19932;-52
2022/04/17 02:37:25;;;;;;;40.58;17.30;;;1.80;99.90;;;;;;5051595;28;20044;-52
2022/04/17 02:39:51;;;;;;;35.78;17.30;;;1.70;99.90;;;;;;5051050;28;20029;-53
2022/04/17 02:42:17;;;;;;;38.42;16.40;;;1.70;99.90;;;;;;5051296;28;20151;-53
2022/04/17 02:44:42;;;;;;;38.83;16.42;;;1.70;99.90;;;;;;5051151;28;20035;-53
2022/04/17 02:49:52;;;;;;;40.83;17.77;;;1.60;99.90;;;;;;5050844;28;20039;-53
2022/04/17 02:52:18;;;;;;;34.65;15.93;;;1.60;99.90;;;;;;5050325;28;20025;-53
2022/04/17 02:54:44;;;;;;;43.42;18.27;;;1.60;99.90;;;;;;5051608;28;20035;-51
2022/04/17 02:57:09;;;;;;;35.38;18.00;;;1.50;99.90;;;;;;5051527;28;20021;-51
2022/04/17 02:59:35;;;;;;;43.03;19.08;;;1.60;99.90;;;;;;5050886;28;20487;-51
2022/04/17 03:07:32;;;;;;;42.08;18.08;;;1.30;99.90;;;;;;5051264;28;20450;-52
2022/04/17 03:09:57;;;;;;;38.88;18.55;;;1.30;99.90;;;;;;5050917;28;20476;-53
2022/04/17 03:12:23;;;;;;;33.33;15.90;;;1.40;99.90;;;;;;5051417;28;20043;-53
2022/04/17 03:14:49;;;;;;;36.00;17.67;;;1.40;99.90;;;;;;5050914;28;20029;-53
2022/04/17 03:17:15;;;;;;;35.05;16.80;;;1.30;99.90;;;;;;5051232;28;20368;-57
2022/04/17 03:19:40;;;;;;;34.60;17.02;;;1.30;99.90;;;;;;5051137;28;20025;-52
2022/04/17 03:22:07;;;;;;;36.47;16.38;;;1.30;99.90;;;;;;5049696;28;20025;-51
2022/04/17 03:24:32;;;;;;;37.27;18.33;;;1.10;99.90;;;;;;5050996;28;20017;-52
2022/04/17 03:26:58;;;;;;;37.40;17.98;;;1.10;99.90;;;;;;5050886;28;20515;-53
2022/04/17 03:29:24;;;;;;;41.60;18.13;;;0.80;99.90;;;;;;5050701;28;20029;-53
2022/04/17 03:31:50;;;;;;;40.13;18.48;;;1.10;99.90;;;;;;5050636;28;20545;-52
2022/04/17 03:34:16;;;;;;;36.90;18.08;;;1.10;99.90;;;;;;5050774;28;20029;-52
2022/04/17 03:36:41;;;;;;;30.83;16.60;;;1.00;99.90;;;;;;5050551;28;20435;-51
2022/04/17 03:39:07;;;;;;;37.70;17.40;;;1.00;99.90;;;;;;5050549;28;20075;-52
2022/04/17 03:41:35;;;;;;;32.63;17.52;;;1.00;99.90;;;;;;5050238;28;20052;-53
2022/04/17 03:44:04;;;;;;;38.50;19.17;;;1.10;99.90;;;;;;5050208;28;20033;-52
2022/04/17 03:46:30;;;;;;;39.03;19.63;;;1.10;99.90;;;;;;5050182;28;20033;-52
2022/04/17 03:48:55;;;;;;;45.83;22.30;;;1.30;99.90;;;;;;5047402;28;20025;-53
2022/04/17 03:51:21;;;;;;;50.53;26.88;;;1.00;99.90;;;;;;5049732;28;20032;-53
2022/04/17 03:53:47;;;;;;;44.42;22.52;;;0.90;99.90;;;;;;5050181;28;20155;-53
2022/04/17 03:56:12;;;;;;;44.47;21.27;;;1.10;99.90;;;;;;5050336;28;20417;-51
2022/04/17 03:58:38;;;;;;;48.28;24.38;;;1.10;99.90;;;;;;5050144;28;20029;-53
2022/04/17 04:01:04;;;;;;;48.53;23.88;;;1.10;99.90;;;;;;5050234;28;20574;-53
2022/04/17 04:03:29;;;;;;;46.47;25.23;;;1.00;99.90;;;;;;5049678;28;20507;-53
2022/04/17 04:05:55;;;;;;;54.85;27.98;;;1.00;99.90;;;;;;5049990;28;20024;-53
2022/04/17 04:08:21;;;;;;;51.08;26.05;;;1.00;99.90;;;;;;5049876;28;20135;-52
2022/04/17 04:10:47;;;;;;;51.88;26.85;;;1.00;99.90;;;;;;5049770;28;20017;-53
2022/04/17 04:13:13;;;;;;;62.63;28.30;;;1.00;99.90;;;;;;5049559;28;20091;-53
2022/04/17 04:15:39;;;;;;;55.03;28.88;;;1.00;99.90;;;;;;5049762;28;20025;-53
2022/04/17 04:18:04;;;;;;;60.20;29.40;;;1.00;99.90;;;;;;5049713;28;20028;-53
2022/04/17 04:20:30;;;;;;;63.78;29.80;;;1.10;99.90;;;;;;5049648;28;20112;-53
2022/04/17 04:22:57;;;;;;;56.53;28.15;;;1.20;99.90;;;;;;5048881;28;20024;-53
2022/04/17 04:25:22;;;;;;;63.15;30.13;;;1.20;99.90;;;;;;5049738;28;20032;-53
2022/04/17 04:30:33;;;;;;;54.45;28.50;;;1.20;99.90;;;;;;5049292;28;20040;-52
2022/04/17 04:32:58;;;;;;;59.67;31.48;;;1.10;99.90;;;;;;5048874;28;20041;-53
2022/04/17 04:35:29;;;;;;;58.85;30.50;;;1.10;99.90;;;;;;5049180;28;20408;-52
2022/04/17 04:37:56;;;;;;;54.47;28.88;;;1.10;99.90;;;;;;5049139;28;20029;-52
2022/04/17 04:40:22;;;;;;;63.53;30.10;;;1.20;99.90;;;;;;5049273;28;20654;-53
2022/04/17 04:42:55;;;;;;;64.40;31.73;;;1.30;99.90;;;;;;5048896;28;20033;-52
2022/04/17 04:48:05;;;;;;;60.20;30.55;;;1.00;99.90;;;;;;5049161;28;20040;-53
2022/04/17 04:50:31;;;;;;;59.47;30.33;;;1.10;99.90;;;;;;5046007;28;20029;-53
2022/04/17 04:52:56;;;;;;;63.33;31.63;;;1.30;99.90;;;;;;5048635;28;20472;-53
2022/04/17 04:55:22;;;;;;;66.10;31.85;;;1.40;99.90;;;;;;5049198;28;20107;-53
2022/04/17 04:57:48;;;;;;;69.22;33.97;;;1.50;99.90;;;;;;5048976;28;20083;-51
2022/04/17 05:00:14;;;;;;;61.97;31.38;;;1.40;99.90;;;;;;5048768;28;20021;-53
2022/04/17 05:02:40;;;;;;;63.17;29.80;;;1.50;99.90;;;;;;5048855;28;20025;-53
2022/04/17 05:05:07;;;;;;;65.38;31.42;;;1.60;99.90;;;;;;5048861;28;20040;-53
2022/04/17 05:07:33;;;;;;;57.55;28.02;;;1.60;99.90;;;;;;5048316;28;20041;-50
2022/04/17 05:10:00;;;;;;;51.65;27.42;;;1.70;99.90;;;;;;5030355;28;20088;-53
2022/04/17 05:12:27;;;;;;;54.05;27.25;;;1.80;99.90;;;;;;5048865;28;20035;-53
2022/04/17 05:14:53;;;;;;;;;;;1.80;99.90;;;;;;5048849;28;20029;-52
2022/04/17 05:17:18;;;;;;;56.55;27.50;;;1.90;99.90;;;;;;5048387;28;19920;-52
2022/04/17 05:19:44;;;;;;;60.03;27.75;;;1.80;99.90;;;;;;5048660;28;20416;-52
2022/04/17 05:22:16;;;;;;;57.45;28.65;;;1.90;99.90;;;;;;5048321;28;20447;-52
2022/04/17 05:24:45;;;;;;;63.40;29.10;;;1.80;99.90;;;;;;5048466;28;20024;-51
2022/04/17 05:27:12;;;;;;;62.00;29.98;;;1.90;99.90;;;;;;5048148;28;20033;-52
2022/04/17 05:29:38;;;;;;;63.60;30.08;;;1.90;99.90;;;;;;5048415;28;20036;-52
2022/04/17 05:32:04;;;;;;;62.47;28.83;;;2.00;99.90;;;;;;5048559;28;20052;-52
2022/04/17 05:34:30;;;;;;;61.30;28.80;;;2.10;99.90;;;;;;5048023;28;20050;-53
2022/04/17 05:36:56;;;;;;;55.63;28.77;;;2.20;99.90;;;;;;5048765;28;20039;-52
2022/04/17 05:39:22;;;;;;;59.38;28.40;;;2.20;99.90;;;;;;5048088;28;20033;-53
2022/04/17 05:41:48;;;;;;;55.67;28.77;;;2.20;99.90;;;;;;5048320;28;20380;-53
2022/04/17 05:44:14;;;;;;;57.92;27.35;;;2.30;99.90;;;;;;5049311;28;20029;-53
2022/04/17 05:46:41;;;;;;;58.55;29.83;;;2.40;99.90;;;;;;5052240;28;20508;-53
2022/04/17 05:49:07;;;;;;;61.00;30.13;;;2.50;99.90;;;;;;5052635;28;20079;-53
2022/04/17 05:51:34;;;;;;;56.53;28.80;;;2.50;99.90;;;;;;5049505;28;20031;-53
2022/04/17 05:54:01;;;;;;;62.97;30.20;;;2.60;99.90;;;;;;5052347;28;20033;-53
2022/04/17 05:56:28;;;;;;;62.85;31.25;;;2.60;99.90;;;;;;5052364;28;20472;-52
2022/04/17 05:58:54;;;;;;;63.10;30.67;;;2.60;99.90;;;;;;5034178;28;20029;-52
2022/04/17 06:01:19;;;;;;;61.10;30.90;;;2.60;99.90;;;;;;5052392;28;20032;-53
2022/04/17 06:03:45;;;;;;;51.15;27.33;;;2.70;99.90;;;;;;5051863;28;20052;-52
2022/04/17 06:06:11;;;;;;;60.50;28.80;;;2.80;99.90;;;;;;5034737;28;20094;-56
2022/04/17 06:08:38;;;;;;;61.03;29.40;;;2.90;99.90;;;;;;5051986;28;20025;-51
2022/04/17 06:11:03;;;;;;;54.42;30.17;;;3.00;99.90;;;;;;5052142;28;20111;-52
2022/04/17 06:13:29;;;;;;;67.03;30.08;;;3.00;99.90;;;;;;5033864;28;20136;-52
2022/04/17 06:15:55;;;;;;;57.72;28.95;;;3.10;99.90;;;;;;5051939;28;20481;-51
2022/04/17 06:18:20;;;;;;;63.17;29.88;;;3.20;99.90;;;;;;5051856;28;20111;-51
2022/04/17 06:20:46;;;;;;;57.30;29.48;;;3.20;99.90;;;;;;5051996;28;20025;-52
2022/04/17 06:23:13;;;;;;;71.25;32.50;;;3.30;99.90;;;;;;5033369;28;20032;-53
2022/04/17 06:25:38;;;;;;;67.10;31.83;;;3.40;99.90;;;;;;5051663;28;20032;-52
2022/04/17 06:28:04;;;;;;;58.92;30.67;;;3.50;99.90;;;;;;5051865;28;20021;-53
2022/04/17 06:30:30;;;;;;;58.45;30.80;;;3.50;99.90;;;;;;5051515;28;20484;-52
2022/04/17 06:32:56;;;;;;;61.60;29.98;;;3.50;99.90;;;;;;5051482;28;20037;-51
2022/04/17 06:35:22;;;;;;;63.42;33.30;;;3.70;99.90;;;;;;5051508;28;20045;-53
2022/04/17 06:37:55;;;;;;;52.55;28.40;;;3.80;99.90;;;;;;5051640;28;20044;-51
2022/04/17 06:40:26;;;;;;;52.50;26.13;;;3.90;99.90;;;;;;5051751;28;20017;-55
2022/04/17 06:42:53;;;;;;;45.55;25.48;;;4.00;99.90;;;;;;5051274;28;20135;-51
2022/04/17 06:45:19;;;;;;;;;;;4.10;99.90;;;;;;5051652;28;20025;-53
2022/04/17 06:47:45;;;;;;;42.47;21.80;;;4.10;99.90;;;;;;5051295;28;19962;-51
2022/04/17 06:50:12;;;;;;;46.40;21.90;;;4.20;99.90;;;;;;5051524;28;20063;-52
2022/04/17 06:52:38;;;;;;;45.30;23.50;;;4.20;99.90;;;;;;5048600;28;20270;-52
2022/04/17 06:55:05;;;;;;;48.25;25.27;;;4.30;99.90;;;;;;5050783;28;20508;-51
2022/04/17 06:57:33;;;;;;;50.58;24.33;;;4.40;99.90;;;;;;5033102;28;20029;-52
2022/04/17 07:00:09;;;;;;;42.60;26.30;;;4.40;99.90;;;;;;5051161;28;20033;-52
2022/04/17 07:02:35;;;;;;;44.25;25.65;;;4.50;99.90;;;;;;5050631;28;20037;-52
2022/04/17 07:05:01;;;;;;;42.30;25.15;;;4.60;99.90;;;;;;5038861;28;20056;-52
2022/04/17 07:07:27;;;;;;;46.88;24.63;;;4.70;99.90;;;;;;5059385;28;20460;-52
2022/04/17 07:09:52;;;;;;;41.15;23.10;;;4.90;99.90;;;;;;5059809;28;20491;-52
2022/04/17 07:12:18;;;;;;;39.00;22.15;;;5.10;99.90;;;;;;5060199;28;20388;-52
2022/04/17 07:14:44;;;;;;;38.53;22.13;;;5.20;99.90;;;;;;5040182;28;20051;-51
2022/04/17 07:17:09;;;;;;;38.25;21.17;;;5.50;99.90;;;;;;5060181;28;20104;-53
2022/04/17 07:19:35;;;;;;;39.92;20.77;;;5.60;99.90;;;;;;5059701;28;20024;-51
2022/04/17 07:22:01;;;;;;;33.30;19.73;;;5.80;99.90;;;;;;5064443;28;20020;-51
2022/04/17 07:24:26;;;;;;;33.97;19.77;;;5.80;99.90;;;;;;5065440;28;20032;-52
2022/04/17 07:26:53;;;;;;;32.15;20.23;;;5.90;99.90;;;;;;5059567;28;20075;-51
2022/04/17 07:29:22;;;;;;;29.88;18.77;;;6.00;99.90;;;;;;5059151;28;20085;-52
2022/04/17 07:31:53;;;;;;;35.47;18.90;;;6.20;99.90;;;;;;5052753;28;20030;-53
2022/04/17 07:34:21;;;;;;;31.77;17.95;;;6.30;99.90;;;;;;5052951;28;20122;-52
2022/04/17 07:36:47;;;;;;;31.42;17.92;;;6.40;99.90;;;;;;5043473;28;20031;-51
2022/04/17 07:39:18;;;;;;;29.83;16.40;;;6.40;99.90;;;;;;5040405;28;20388;-52
2022/04/17 07:41:45;;;;;;;29.92;14.82;;;6.40;99.90;;;;;;5035723;28;20036;-52
2022/04/17 07:44:11;;;;;;;30.10;15.63;;;6.50;99.90;;;;;;5046683;28;20038;-53
2022/04/17 07:46:38;;;;;;;31.02;15.13;;;6.70;99.90;;;;;;5048936;28;20020;-51
2022/04/17 07:49:04;;;;;;;28.48;15.23;;;6.90;99.90;;;;;;5059232;28;20481;-52
2022/04/17 07:51:30;;;;;;;27.92;15.73;;;7.00;99.90;;;;;;5050103;28;20072;-52
2022/04/17 07:53:55;;;;;;;26.05;14.43;;;7.20;99.90;;;;;;5058331;28;20044;-51
2022/04/17 07:56:21;;;;;;;29.38;14.93;;;7.30;99.90;;;;;;5059634;28;20042;-53
2022/04/17 07:58:47;;;;;;;22.63;10.65;;;7.30;99.90;;;;;;5052276;28;20029;-53
2022/04/17 08:01:15;;;;;;;23.85;12.20;;;7.30;99.90;;;;;;5049931;28;20044;-51
2022/04/17 08:06:09;;;;;;;14.52;7.25;;;7.70;99.90;;;;;;5050214;28;20036;-52
2022/04/17 08:08:39;;;;;;;11.73;5.45;;;8.10;99.90;;;;;;5049152;28;20040;-51
2022/04/17 08:11:06;;;;;;;9.65;4.78;;;8.40;99.90;;;;;;5039832;28;20033;-52
2022/04/17 08:13:32;;;;;;;8.67;3.73;;;8.80;99.90;;;;;;5040126;28;20045;-53
2022/04/17 08:15:59;;;;;;;8.32;3.20;;;9.00;99.30;;;;;;5049478;28;20114;-52
2022/04/17 08:18:25;;;;;;;5.35;2.72;;;8.80;95.60;;;;;;5047814;28;20025;-52
2022/04/17 08:20:50;;;;;;;6.32;2.90;;;8.80;93.30;;;;;;5048503;28;20182;-51
2022/04/17 08:23:16;;;;;;;7.20;3.08;;;8.80;90.10;;;;;;5048524;28;20041;-50
2022/04/17 08:25:42;;;;;;;7.30;3.70;;;8.80;90.60;;;;;;5049168;28;20029;-51
2022/04/17 08:28:08;;;;;;;6.65;3.15;;;9.00;90.20;;;;;;5049474;28;20029;-54
2022/04/17 08:30:35;;;;;;;5.88;3.92;;;9.30;93.50;;;;;;5049107;28;20086;-51
2022/04/17 08:33:03;;;;;;;5.78;3.95;;;9.30;88.70;;;;;;5048994;28;20535;-52
2022/04/17 08:35:29;;;;;;;5.50;3.97;;;9.30;90.50;;;;;;5049526;28;20606;-51
2022/04/17 08:37:59;;;;;;;5.50;3.08;;;9.30;83.30;;;;;;5031410;28;20036;-52
2022/04/17 08:40:26;;;;;;;5.80;2.95;;;9.30;81.90;;;;;;5031391;28;20033;-53
2022/04/17 08:42:53;;;;;;;7.72;4.07;;;9.60;82.40;;;;;;5048830;28;20495;-52
2022/04/17 08:45:20;;;;;;;9.55;4.07;;;9.70;83.00;;;;;;5049210;28;20043;-51
2022/04/17 08:47:46;;;;;;;7.53;3.73;;;9.90;86.00;;;;;;5048292;28;20071;-51
2022/04/17 08:50:14;;;;;;;7.60;3.60;;;10.10;83.40;;;;;;5049285;28;20053;-51
2022/04/17 08:52:43;;;;;;;6.97;3.40;;;10.00;83.40;;;;;;5048781;28;20116;-52
2022/04/17 08:55:09;;;;;;;8.13;3.08;;;10.10;80.80;;;;;;5049268;28;20036;-53
2022/04/17 08:57:35;;;;;;;6.15;3.15;;;10.10;79.90;;;;;;5049218;28;20029;-52
2022/04/17 09:00:03;;;;;;;7.03;3.13;;;10.30;81.60;;;;;;5048259;28;20108;-52
2022/04/17 09:02:29;;;;;;;7.57;3.15;;;10.40;85.80;;;;;;5048919;28;20067;-51
2022/04/17 09:04:55;;;;;;;6.57;2.60;;;10.60;79.00;;;;;;5048581;28;20088;-53
2022/04/17 09:07:20;;;;;;;6.93;3.17;;;11.00;77.90;;;;;;5048721;28;20033;-52
2022/04/17 09:09:51;;;;;;;6.60;3.28;;;11.10;76.40;;;;;;5048767;28;20036;-52
2022/04/17 09:12:22;;;;;;;6.15;3.30;;;11.10;75.60;;;;;;5048573;28;20033;-55
2022/04/17 09:14:48;;;;;;;7.18;3.22;;;11.00;72.80;;;;;;5048793;28;20037;-51
2022/04/17 09:17:15;;;;;;;6.22;3.20;;;10.80;71.90;;;;;;5030789;28;20082;-52
2022/04/17 09:19:42;;;;;;;6.18;3.00;;;10.60;73.40;;;;;;5047721;28;20110;-53
2022/04/17 09:22:09;;;;;;;6.30;2.70;;;10.50;77.70;;;;;;5048883;28;20032;-53
2022/04/17 09:24:36;;;;;;;;;;;10.70;79.00;;;;;;5048930;28;20459;-54
2022/04/17 09:27:03;;;;;;;6.35;3.20;;;11.10;74.60;;;;;;5048561;28;19954;-53
2022/04/17 09:29:36;;;;;;;6.68;3.28;;;11.30;75.70;;;;;;5048620;28;20033;-52
2022/04/17 09:32:09;;;;;;;8.52;3.15;;;11.60;78.10;;;;;;5048563;28;20130;-52
2022/04/17 09:34:55;;;;;;;5.40;2.80;;;12.00;72.60;;;;;;5048482;28;20086;-53
2022/04/17 09:37:26;;;;;;;5.68;2.17;;;11.90;72.60;;;;;;5048469;28;20032;-51
2022/04/17 09:39:52;;;;;;;4.78;2.22;;;12.30;73.40;;;;;;5048501;28;20035;-51
2022/04/17 09:42:26;;;;;;;6.22;2.47;;;12.00;68.70;;;;;;5030438;28;20021;-53
2022/04/17 09:44:55;;;;;;;7.07;2.20;;;12.10;70.00;;;;;;5048470;28;20041;-52
2022/04/17 09:47:29;;;;;;;8.82;2.83;;;12.20;71.20;;;;;;5047974;28;20032;-52
2022/04/17 09:50:03;;;;;;;7.10;2.72;;;12.40;70.50;;;;;;5048648;28;20078;-53
2022/04/17 09:52:41;;;;;;;5.22;2.45;;;12.60;68.10;;;;;;5048483;28;20044;-52
2022/04/17 09:55:07;;;;;;;6.82;2.83;;;12.70;65.90;;;;;;5047981;28;20022;-52
2022/04/17 09:57:35;;;;;;;6.20;2.45;;;12.80;68.10;;;;;;5048313;28;20025;-53
2022/04/17 10:00:13;;;;;;;7.88;2.80;;;12.80;67.50;;;;;;5048314;28;20033;-51
2022/04/17 10:02:41;;;;;;;7.72;2.67;;;13.20;66.90;;;;;;5048323;28;20511;-52
2022/04/17 10:05:07;;;;;;;;;;;12.90;65.50;;;;;;5048408;28;20061;-53
2022/04/17 10:07:36;;;;;;;5.32;2.58;;;12.60;61.70;;;;;;5048248;28;19904;-52
2022/04/17 10:10:02;;;;;;;7.13;2.17;;;12.50;65.30;;;;;;5048416;28;20476;-53
2022/04/17 10:12:29;;;;;;;6.63;2.50;;;12.20;61.80;;;;;;5048185;28;20165;-52
2022/04/17 10:14:55;;;;;;;4.32;2.30;;;11.80;63.90;;;;;;5047753;28;20040;-53
2022/04/17 10:17:23;;;;;;;6.85;3.45;;;11.90;65.40;;;;;;5048245;28;20021;-52
2022/04/17 10:19:50;;;;;;;7.68;3.50;;;12.00;64.30;;;;;;5048463;28;20179;-53
2022/04/17 10:22:21;;;;;;;9.52;4.30;;;12.40;69.40;;;;;;5048507;28;20028;-53
2022/04/17 10:24:54;;;;;;;7.18;3.38;;;12.20;68.00;;;;;;5048366;28;20171;-52
2022/04/17 10:27:23;;;;;;;6.75;2.97;;;12.30;66.10;;;;;;5048172;28;20029;-52
2022/04/17 10:30:04;;;;;;;9.10;3.13;;;11.90;61.70;;;;;;5048059;28;20527;-52
2022/04/17 10:32:34;;;;;;;6.63;3.15;;;12.00;64.90;;;;;;5051586;28;20048;-51
2022/04/17 10:35:00;;;;;;;5.13;2.67;;;11.80;63.80;;;;;;5051464;28;20108;-51
2022/04/17 10:38:04;;;;;;;6.40;2.67;;;12.20;70.10;;;;;;5051742;28;20017;-53
2022/04/17 10:40:31;;;;;;;7.13;2.53;;;12.40;65.80;;;;;;5051607;28;20025;-54
2022/04/17 10:42:59;;;;;;;6.85;2.90;;;13.00;63.00;;;;;;5051270;28;20053;-52
2022/04/17 10:45:31;;;;;;;7.13;3.35;;;13.20;64.20;;;;;;5051415;28;20067;-52
2022/04/17 10:48:02;;;;;;;5.72;2.90;;;12.90;62.80;;;;;;5051288;28;20025;-52
2022/04/17 10:50:30;;;;;;;7.65;3.45;;;12.30;64.20;;;;;;5051368;28;20037;-53
2022/04/17 10:52:56;;;;;;;9.90;2.95;;;12.10;62.50;;;;;;5051053;28;20039;-51
2022/04/17 10:55:22;;;;;;;6.13;2.85;;;11.90;62.50;;;;;;5051925;28;20037;-51
2022/04/17 10:57:49;;;;;;;6.32;3.00;;;11.90;66.90;;;;;;5050879;28;20021;-51
2022/04/17 11:00:28;;;;;;;10.65;3.67;;;11.70;64.30;;;;;;5051237;28;20738;-52
2022/04/17 11:02:54;;;;;;;5.38;2.75;;;11.60;64.60;;;;;;5050875;28;20091;-52
2022/04/17 11:08:25;;;;;;;5.05;2.83;;;12.50;65.70;;;;;;5051184;28;20190;-50
2022/04/17 11:11:02;;;;;;;5.82;2.40;;;13.50;59.60;;;;;;5050720;28;20024;-52
2022/04/17 11:13:28;;;;;;;5.53;2.70;;;14.00;59.20;;;;;;5050980;28;20045;-51
2022/04/17 11:15:59;;;;;;;7.68;2.60;;;14.10;58.30;;;;;;5050869;28;20044;-52
2022/04/17 11:18:28;;;;;;;6.15;2.72;;;14.10;57.20;;;;;;5051095;28;20036;-53
2022/04/17 11:20:55;;;;;;;7.65;3.03;;;13.70;58.10;;;;;;5050721;28;20056;-51
2022/04/17 11:23:48;;;;;;;4.18;2.35;;;13.50;59.50;;;;;;5050705;28;20025;-53
2022/04/17 11:26:15;;;;;;;5.80;2.75;;;12.90;58.80;;;;;;5051004;28;20034;-52
2022/04/17 11:28:41;;;;;;;5.68;2.70;;;12.50;58.00;;;;;;5050732;28;20064;-52
2022/04/17 11:31:08;;;;;;;6.10;2.60;;;12.40;59.70;;;;;;5050315;28;20057;-51
2022/04/17 11:33:33;;;;;;;8.35;3.20;;;12.40;62.40;;;;;;5050499;28;20036;-51
2022/04/17 11:36:00;;;;;;;5.82;2.75;;;12.20;61.40;;;;;;5050787;28;20037;-51
2022/04/17 11:38:26;;;;;;;8.00;3.30;;;12.10;60.40;;;;;;5050497;28;20503;-51
2022/04/17 11:40:52;;;;;;;6.47;3.47;;;11.90;62.70;;;;;;5050729;28;20064;-51
2022/04/17 11:43:21;;;;;;;9.75;3.58;;;11.60;62.20;;;;;;5049431;28;20025;-54
2022/04/17 11:45:47;;;;;;;7.95;3.00;;;11.40;63.40;;;;;;5050731;28;20048;-51
2022/04/17 11:48:17;;;;;;;5.85;2.67;;;11.40;62.90;;;;;;5050270;28;20036;-52
2022/04/17 11:50:44;;;;;;;5.13;2.55;;;11.10;61.50;;;;;;5050578;28;20037;-52
2022/04/17 11:53:17;;;;;;;5.72;2.65;;;11.20;65.70;;;;;;5050168;28;20407;-51
2022/04/17 11:55:45;;;;;;;7.40;2.22;;;11.50;64.40;;;;;;5050568;28;20480;-52
2022/04/17 11:58:12;;;;;;;7.82;3.92;;;11.60;63.60;;;;;;5049813;28;20037;-52
2022/04/17 12:00:39;;;;;;;9.35;4.30;;;11.70;65.40;;;;;;5050541;28;20025;-52
2022/04/17 12:03:07;;;;;;;10.95;4.13;;;11.70;63.00;;;;;;5050040;28;20025;-52
2022/04/17 12:05:34;;;;;;;7.88;3.08;;;11.50;63.90;;;;;;5049955;28;20056;-51
2022/04/17 12:08:06;;;;;;;9.15;3.72;;;11.40;63.90;;;;;;5049854;28;20381;-53
2022/04/17 12:10:33;;;;;;;8.38;2.70;;;11.40;64.20;;;;;;5050050;28;20031;-53
2022/04/17 12:13:14;;;;;;;7.35;3.67;;;11.40;62.40;;;;;;5049699;28;20389;-52
2022/04/17 12:15:40;;;;;;;8.10;3.28;;;11.90;64.40;;;;;;5050209;28;20047;-53
2022/04/17 12:18:06;;;;;;;5.75;2.35;;;12.20;63.30;;;;;;5049760;28;20047;-51
2022/04/17 12:20:31;;;;;;;6.63;2.78;;;12.40;59.60;;;;;;5049485;28;20024;-52
2022/04/17 12:22:57;;;;;;;6.00;2.83;;;12.20;60.90;;;;;;5049825;28;20029;-52
2022/04/17 12:25:25;;;;;;;5.82;2.65;;;12.30;61.50;;;;;;5050000;28;20025;-51
2022/04/17 12:27:53;;;;;;;6.20;2.88;;;12.40;61.00;;;;;;5049415;28;20078;-51
2022/04/17 12:30:29;;;;;;;6.13;2.88;;;12.20;59.50;;;;;;5049543;28;20040;-53
2022/04/17 12:33:01;;;;;;;7.80;3.65;;;12.20;62.80;;;;;;5049321;28;20033;-52
2022/04/17 12:35:34;;;;;;;7.72;3.28;;;11.90;59.90;;;;;;5049386;28;20032;-52
2022/04/17 12:38:10;;;;;;;6.18;3.10;;;11.90;60.50;;;;;;5049362;28;20017;-52
2022/04/17 12:40:43;;;;;;;7.88;3.55;;;11.90;61.60;;;;;;5049140;28;20037;-51
2022/04/17 12:43:19;;;;;;;11.60;4.20;;;12.30;65.00;;;;;;5049160;28;20033;-53
2022/04/17 12:46:04;;;;;;;5.28;2.97;;;12.80;64.60;;;;;;5049219;28;20036;-51
2022/04/17 12:48:34;;;;;;;9.32;2.92;;;13.00;54.60;;;;;;5029093;28;20087;-52
2022/04/17 12:51:04;;;;;;;5.68;3.05;;;13.00;56.50;;;;;;5029341;28;20748;-51
2022/04/17 12:53:41;;;;;;;5.88;2.75;;;12.90;56.40;;;;;;5028964;28;20037;-53
2022/04/17 12:56:09;;;;;;;5.28;2.70;;;12.60;55.20;;;;;;5029436;28;20396;-50
2022/04/17 12:58:47;;;;;;;7.88;3.70;;;12.30;58.70;;;;;;5028490;28;20120;-54
2022/04/17 13:03:44;;;;;;;8.25;2.50;;;12.30;60.10;;;;;;4988341;28;20047;-52
2022/04/17 13:06:21;;;;;;;6.40;2.80;;;12.20;59.80;;;;;;4989692;28;20045;-53
2022/04/17 13:09:07;;;;;;;9.45;3.30;;;12.10;60.40;;;;;;4989145;28;20097;-52
2022/04/17 13:11:37;;;;;;;7.50;3.15;;;11.90;59.50;;;;;;4989497;28;20117;-52